sensor_id;sensor_type;location;lat;lon;timestamp;P1;durP1;ratioP1;P2;durP2;ratioP2
19998;SDS011;10160;50.926;4.374;2023-02-28T00:00:22;11.70;;;7.37;;
19998;SDS011;10160;50.926;4.374;2023-02-28T00:02:49;13.37;;;7.83;;
19998;SDS011;10160;50.926;4.374;2023-02-28T00:05:16;14.63;;;7.37;;
19998;SDS011;10160;50.926;4.374;2023-02-28T00:07:44;16.70;;;7.63;;
19998;SDS011;10160;50.926;4.374;2023-02-28T00:10:14;12.53;;;7.67;;
19998;SDS011;10160;50.926;4.374;2023-02-28T00:12:45;12.83;;;7.30;;
19998;SDS011;10160;50.926;4.374;2023-02-28T00:15:14;11.23;;;7.90;;
19998;SDS011;10160;50.926;4.374;2023-02-28T00:17:41;12.57;;;8.47;;
19998;SDS011;10160;50.926;4.374;2023-02-28T00:20:06;12.43;;;7.40;;
19998;SDS011;10160;50.926;4.374;2023-02-28T00:22:35;12.00;;;7.43;;
19998;SDS011;10160;50.926;4.374;2023-02-28T00:25:02;12.87;;;7.13;;
19998;SDS011;10160;50.926;4.374;2023-02-28T00:27:28;12.10;;;7.77;;
19998;SDS011;10160;50.926;4.374;2023-02-28T00:29:55;12.83;;;6.93;;
19998;SDS011;10160;50.926;4.374;2023-02-28T00:32:20;14.20;;;7.90;;
19998;SDS011;10160;50.926;4.374;2023-02-28T00:34:46;15.60;;;7.77;;
19998;SDS011;10160;50.926;4.374;2023-02-28T00:37:12;14.07;;;8.10;;
19998;SDS011;10160;50.926;4.374;2023-02-28T00:39:38;14.43;;;8.00;;
19998;SDS011;10160;50.926;4.374;2023-02-28T00:42:04;15.50;;;7.90;;
19998;SDS011;10160;50.926;4.374;2023-02-28T00:44:30;12.13;;;7.80;;
19998;SDS011;10160;50.926;4.374;2023-02-28T00:46:56;13.67;;;7.87;;
19998;SDS011;10160;50.926;4.374;2023-02-28T00:49:23;11.50;;;8.17;;
19998;SDS011;10160;50.926;4.374;2023-02-28T00:51:49;12.97;;;7.53;;
19998;SDS011;10160;50.926;4.374;2023-02-28T00:54:15;12.97;;;7.57;;
19998;SDS011;10160;50.926;4.374;2023-02-28T00:56:41;15.63;;;7.77;;
19998;SDS011;10160;50.926;4.374;2023-02-28T00:59:07;12.97;;;8.00;;
19998;SDS011;10160;50.926;4.374;2023-02-28T01:01:33;15.67;;;9.03;;
19998;SDS011;10160;50.926;4.374;2023-02-28T01:04:00;14.67;;;8.17;;
19998;SDS011;10160;50.926;4.374;2023-02-28T01:06:26;11.43;;;8.03;;
19998;SDS011;10160;50.926;4.374;2023-02-28T01:08:52;19.13;;;8.87;;
19998;SDS011;10160;50.926;4.374;2023-02-28T01:11:18;16.63;;;8.77;;
19998;SDS011;10160;50.926;4.374;2023-02-28T01:13:44;16.87;;;9.50;;
19998;SDS011;10160;50.926;4.374;2023-02-28T01:16:11;15.47;;;9.60;;
19998;SDS011;10160;50.926;4.374;2023-02-28T01:18:38;16.27;;;9.17;;
19998;SDS011;10160;50.926;4.374;2023-02-28T01:21:04;22.60;;;9.17;;
19998;SDS011;10160;50.926;4.374;2023-02-28T01:23:30;15.00;;;9.10;;
19998;SDS011;10160;50.926;4.374;2023-02-28T01:25:57;15.07;;;8.93;;
19998;SDS011;10160;50.926;4.374;2023-02-28T01:28:22;14.90;;;9.13;;
19998;SDS011;10160;50.926;4.374;2023-02-28T01:30:49;13.40;;;9.10;;
19998;SDS011;10160;50.926;4.374;2023-02-28T01:33:15;16.40;;;9.37;;
19998;SDS011;10160;50.926;4.374;2023-02-28T01:35:40;18.03;;;9.07;;
19998;SDS011;10160;50.926;4.374;2023-02-28T01:38:06;15.77;;;9.80;;
19998;SDS011;10160;50.926;4.374;2023-02-28T01:40:32;15.23;;;9.50;;
19998;SDS011;10160;50.926;4.374;2023-02-28T01:42:58;16.57;;;9.50;;
19998;SDS011;10160;50.926;4.374;2023-02-28T01:48:03;21.27;;;9.90;;
19998;SDS011;10160;50.926;4.374;2023-02-28T01:50:34;14.73;;;9.57;;
19998;SDS011;10160;50.926;4.374;2023-02-28T01:53:06;13.03;;;9.50;;
19998;SDS011;10160;50.926;4.374;2023-02-28T01:55:35;15.90;;;9.60;;
19998;SDS011;10160;50.926;4.374;2023-02-28T01:58:02;17.30;;;10.17;;
19998;SDS011;10160;50.926;4.374;2023-02-28T02:00:31;16.73;;;9.80;;
19998;SDS011;10160;50.926;4.374;2023-02-28T02:03:04;17.00;;;9.93;;
19998;SDS011;10160;50.926;4.374;2023-02-28T02:05:34;15.20;;;9.80;;
19998;SDS011;10160;50.926;4.374;2023-02-28T02:08:03;16.93;;;9.97;;
19998;SDS011;10160;50.926;4.374;2023-02-28T02:13:50;17.03;;;9.60;;
19998;SDS011;10160;50.926;4.374;2023-02-28T02:28:17;14.83;;;9.93;;
19998;SDS011;10160;50.926;4.374;2023-02-28T02:36:48;18.20;;;11.20;;
19998;SDS011;10160;50.926;4.374;2023-02-28T02:42:14;19.47;;;11.27;;
19998;SDS011;10160;50.926;4.374;2023-02-28T02:45:28;18.60;;;10.30;;
19998;SDS011;10160;50.926;4.374;2023-02-28T02:47:41;16.37;;;10.50;;
19998;SDS011;10160;50.926;4.374;2023-02-28T02:50:11;17.83;;;10.43;;
19998;SDS011;10160;50.926;4.374;2023-02-28T02:52:42;20.27;;;11.10;;
19998;SDS011;10160;50.926;4.374;2023-02-28T02:55:14;17.70;;;10.47;;
19998;SDS011;10160;50.926;4.374;2023-02-28T02:57:53;18.43;;;11.03;;
19998;SDS011;10160;50.926;4.374;2023-02-28T03:00:26;18.27;;;10.90;;
19998;SDS011;10160;50.926;4.374;2023-02-28T03:02:56;17.77;;;11.33;;
19998;SDS011;10160;50.926;4.374;2023-02-28T03:05:26;18.47;;;11.70;;
19998;SDS011;10160;50.926;4.374;2023-02-28T03:07:59;16.97;;;10.53;;
19998;SDS011;10160;50.926;4.374;2023-02-28T03:21:20;23.53;;;10.53;;
19998;SDS011;10160;50.926;4.374;2023-02-28T03:24:06;18.10;;;11.47;;
19998;SDS011;10160;50.926;4.374;2023-02-28T03:26:39;17.87;;;10.63;;
19998;SDS011;10160;50.926;4.374;2023-02-28T03:29:16;23.27;;;11.30;;
19998;SDS011;10160;50.926;4.374;2023-02-28T03:31:52;19.33;;;11.50;;
19998;SDS011;10160;50.926;4.374;2023-02-28T03:34:29;19.40;;;11.23;;
19998;SDS011;10160;50.926;4.374;2023-02-28T03:36:59;18.60;;;12.30;;
19998;SDS011;10160;50.926;4.374;2023-02-28T03:39:43;17.80;;;10.87;;
19998;SDS011;10160;50.926;4.374;2023-02-28T03:42:17;19.13;;;11.07;;
19998;SDS011;10160;50.926;4.374;2023-02-28T03:47:32;21.50;;;12.03;;
19998;SDS011;10160;50.926;4.374;2023-02-28T03:50:07;24.23;;;11.53;;
19998;SDS011;10160;50.926;4.374;2023-02-28T03:52:53;19.57;;;11.23;;
19998;SDS011;10160;50.926;4.374;2023-02-28T03:55:26;20.70;;;10.83;;
19998;SDS011;10160;50.926;4.374;2023-02-28T03:58:01;16.93;;;10.47;;
19998;SDS011;10160;50.926;4.374;2023-02-28T04:00:43;18.57;;;11.07;;
19998;SDS011;10160;50.926;4.374;2023-02-28T04:03:14;18.83;;;11.00;;
19998;SDS011;10160;50.926;4.374;2023-02-28T04:05:47;19.37;;;11.43;;
19998;SDS011;10160;50.926;4.374;2023-02-28T04:08:18;18.67;;;11.80;;
19998;SDS011;10160;50.926;4.374;2023-02-28T04:10:45;19.07;;;11.13;;
19998;SDS011;10160;50.926;4.374;2023-02-28T04:13:16;20.10;;;11.17;;
19998;SDS011;10160;50.926;4.374;2023-02-28T04:15:42;19.07;;;11.80;;
19998;SDS011;10160;50.926;4.374;2023-02-28T04:18:07;19.00;;;11.43;;
19998;SDS011;10160;50.926;4.374;2023-02-28T04:20:33;18.83;;;11.53;;
19998;SDS011;10160;50.926;4.374;2023-02-28T04:23:00;18.17;;;11.70;;
19998;SDS011;10160;50.926;4.374;2023-02-28T04:25:26;20.77;;;11.97;;
19998;SDS011;10160;50.926;4.374;2023-02-28T04:27:52;19.73;;;12.10;;
19998;SDS011;10160;50.926;4.374;2023-02-28T04:30:17;22.47;;;12.20;;
19998;SDS011;10160;50.926;4.374;2023-02-28T04:32:43;17.53;;;11.00;;
19998;SDS011;10160;50.926;4.374;2023-02-28T04:35:09;20.07;;;11.23;;
19998;SDS011;10160;50.926;4.374;2023-02-28T04:37:34;22.17;;;11.63;;
19998;SDS011;10160;50.926;4.374;2023-02-28T04:40:02;20.57;;;12.10;;
19998;SDS011;10160;50.926;4.374;2023-02-28T04:42:28;19.40;;;11.40;;
19998;SDS011;10160;50.926;4.374;2023-02-28T04:45:00;15.27;;;10.83;;
19998;SDS011;10160;50.926;4.374;2023-02-28T04:47:27;18.00;;;11.00;;
19998;SDS011;10160;50.926;4.374;2023-02-28T04:49:53;21.17;;;12.20;;
19998;SDS011;10160;50.926;4.374;2023-02-28T04:52:19;25.80;;;12.50;;
19998;SDS011;10160;50.926;4.374;2023-02-28T04:54:44;21.13;;;11.47;;
19998;SDS011;10160;50.926;4.374;2023-02-28T04:57:10;18.00;;;11.47;;
19998;SDS011;10160;50.926;4.374;2023-02-28T04:59:36;21.90;;;11.80;;
19998;SDS011;10160;50.926;4.374;2023-02-28T05:02:01;21.00;;;12.13;;
19998;SDS011;10160;50.926;4.374;2023-02-28T05:04:31;21.63;;;12.23;;
19998;SDS011;10160;50.926;4.374;2023-02-28T05:06:59;19.03;;;11.83;;
19998;SDS011;10160;50.926;4.374;2023-02-28T05:09:26;20.27;;;12.40;;
19998;SDS011;10160;50.926;4.374;2023-02-28T05:11:53;24.83;;;12.77;;
19998;SDS011;10160;50.926;4.374;2023-02-28T05:14:18;22.23;;;12.40;;
19998;SDS011;10160;50.926;4.374;2023-02-28T05:16:44;18.63;;;12.23;;
19998;SDS011;10160;50.926;4.374;2023-02-28T05:19:10;16.83;;;11.40;;
19998;SDS011;10160;50.926;4.374;2023-02-28T05:21:36;18.63;;;12.17;;
19998;SDS011;10160;50.926;4.374;2023-02-28T05:24:05;25.97;;;12.77;;
19998;SDS011;10160;50.926;4.374;2023-02-28T05:26:35;19.20;;;11.87;;
19998;SDS011;10160;50.926;4.374;2023-02-28T05:29:05;21.83;;;12.53;;
19998;SDS011;10160;50.926;4.374;2023-02-28T05:31:31;19.87;;;12.40;;
19998;SDS011;10160;50.926;4.374;2023-02-28T05:33:57;20.80;;;11.80;;
19998;SDS011;10160;50.926;4.374;2023-02-28T05:36:23;19.33;;;11.37;;
19998;SDS011;10160;50.926;4.374;2023-02-28T05:38:49;21.00;;;10.73;;
19998;SDS011;10160;50.926;4.374;2023-02-28T05:41:16;21.70;;;11.73;;
19998;SDS011;10160;50.926;4.374;2023-02-28T05:43:44;17.47;;;10.67;;
19998;SDS011;10160;50.926;4.374;2023-02-28T05:46:10;17.17;;;10.63;;
19998;SDS011;10160;50.926;4.374;2023-02-28T05:48:36;17.37;;;10.83;;
19998;SDS011;10160;50.926;4.374;2023-02-28T05:51:04;20.30;;;11.13;;
19998;SDS011;10160;50.926;4.374;2023-02-28T05:53:30;17.27;;;10.70;;
19998;SDS011;10160;50.926;4.374;2023-02-28T05:55:57;17.77;;;10.97;;
19998;SDS011;10160;50.926;4.374;2023-02-28T05:58:23;17.97;;;10.40;;
19998;SDS011;10160;50.926;4.374;2023-02-28T06:00:50;21.40;;;11.20;;
19998;SDS011;10160;50.926;4.374;2023-02-28T06:03:16;21.50;;;10.93;;
19998;SDS011;10160;50.926;4.374;2023-02-28T06:05:42;18.13;;;10.70;;
19998;SDS011;10160;50.926;4.374;2023-02-28T06:08:07;18.37;;;10.87;;
19998;SDS011;10160;50.926;4.374;2023-02-28T06:10:34;18.67;;;11.67;;
19998;SDS011;10160;50.926;4.374;2023-02-28T06:13:00;19.60;;;11.00;;
19998;SDS011;10160;50.926;4.374;2023-02-28T06:15:29;21.67;;;10.37;;
19998;SDS011;10160;50.926;4.374;2023-02-28T06:17:55;20.23;;;10.60;;
19998;SDS011;10160;50.926;4.374;2023-02-28T06:20:21;22.87;;;10.93;;
19998;SDS011;10160;50.926;4.374;2023-02-28T06:22:48;19.60;;;10.93;;
19998;SDS011;10160;50.926;4.374;2023-02-28T06:25:15;17.47;;;11.13;;
19998;SDS011;10160;50.926;4.374;2023-02-28T06:27:41;16.93;;;10.40;;
19998;SDS011;10160;50.926;4.374;2023-02-28T06:30:08;18.70;;;10.27;;
19998;SDS011;10160;50.926;4.374;2023-02-28T06:32:35;20.87;;;10.60;;
19998;SDS011;10160;50.926;4.374;2023-02-28T06:35:01;19.33;;;10.53;;
19998;SDS011;10160;50.926;4.374;2023-02-28T06:37:27;19.23;;;10.10;;
19998;SDS011;10160;50.926;4.374;2023-02-28T06:39:53;15.83;;;10.60;;
19998;SDS011;10160;50.926;4.374;2023-02-28T06:42:21;18.27;;;11.23;;
19998;SDS011;10160;50.926;4.374;2023-02-28T06:44:50;14.73;;;9.20;;
19998;SDS011;10160;50.926;4.374;2023-02-28T06:47:16;18.33;;;10.27;;
19998;SDS011;10160;50.926;4.374;2023-02-28T06:49:42;20.03;;;10.87;;
19998;SDS011;10160;50.926;4.374;2023-02-28T06:52:10;17.60;;;10.23;;
19998;SDS011;10160;50.926;4.374;2023-02-28T06:54:36;25.23;;;13.00;;
19998;SDS011;10160;50.926;4.374;2023-02-28T06:57:02;17.93;;;10.33;;
19998;SDS011;10160;50.926;4.374;2023-02-28T06:59:28;17.37;;;10.20;;
19998;SDS011;10160;50.926;4.374;2023-02-28T07:01:53;17.90;;;10.43;;
19998;SDS011;10160;50.926;4.374;2023-02-28T07:04:20;16.30;;;9.97;;
19998;SDS011;10160;50.926;4.374;2023-02-28T07:06:46;17.43;;;10.03;;
19998;SDS011;10160;50.926;4.374;2023-02-28T07:09:12;19.07;;;10.00;;
19998;SDS011;10160;50.926;4.374;2023-02-28T07:11:39;20.80;;;9.60;;
19998;SDS011;10160;50.926;4.374;2023-02-28T07:14:05;19.10;;;9.73;;
19998;SDS011;10160;50.926;4.374;2023-02-28T07:16:31;20.53;;;9.20;;
19998;SDS011;10160;50.926;4.374;2023-02-28T07:18:57;14.50;;;8.90;;
19998;SDS011;10160;50.926;4.374;2023-02-28T07:21:23;19.37;;;8.83;;
19998;SDS011;10160;50.926;4.374;2023-02-28T07:23:49;24.43;;;9.87;;
19998;SDS011;10160;50.926;4.374;2023-02-28T07:26:16;23.17;;;9.47;;
19998;SDS011;10160;50.926;4.374;2023-02-28T07:28:44;20.43;;;10.73;;
19998;SDS011;10160;50.926;4.374;2023-02-28T07:31:11;17.43;;;9.03;;
19998;SDS011;10160;50.926;4.374;2023-02-28T07:33:39;16.70;;;9.13;;
19998;SDS011;10160;50.926;4.374;2023-02-28T07:36:09;20.50;;;10.13;;
19998;SDS011;10160;50.926;4.374;2023-02-28T07:38:40;23.57;;;10.20;;
19998;SDS011;10160;50.926;4.374;2023-02-28T07:41:08;14.70;;;9.60;;
19998;SDS011;10160;50.926;4.374;2023-02-28T07:43:34;17.07;;;9.60;;
19998;SDS011;10160;50.926;4.374;2023-02-28T07:46:07;15.00;;;8.97;;
19998;SDS011;10160;50.926;4.374;2023-02-28T07:48:35;15.23;;;9.27;;
19998;SDS011;10160;50.926;4.374;2023-02-28T07:51:01;21.17;;;9.13;;
19998;SDS011;10160;50.926;4.374;2023-02-28T07:53:27;20.03;;;8.87;;
19998;SDS011;10160;50.926;4.374;2023-02-28T07:55:56;17.67;;;8.47;;
19998;SDS011;10160;50.926;4.374;2023-02-28T07:58:23;13.17;;;8.23;;
19998;SDS011;10160;50.926;4.374;2023-02-28T08:00:50;11.93;;;7.47;;
19998;SDS011;10160;50.926;4.374;2023-02-28T08:03:19;12.47;;;7.30;;
19998;SDS011;10160;50.926;4.374;2023-02-28T08:05:46;20.07;;;8.03;;
19998;SDS011;10160;50.926;4.374;2023-02-28T08:08:12;15.33;;;7.00;;
19998;SDS011;10160;50.926;4.374;2023-02-28T08:10:39;16.53;;;6.87;;
19998;SDS011;10160;50.926;4.374;2023-02-28T08:13:05;13.53;;;7.77;;
19998;SDS011;10160;50.926;4.374;2023-02-28T08:15:30;12.70;;;6.83;;
19998;SDS011;10160;50.926;4.374;2023-02-28T08:17:56;12.00;;;6.40;;
19998;SDS011;10160;50.926;4.374;2023-02-28T08:20:23;11.80;;;6.37;;
19998;SDS011;10160;50.926;4.374;2023-02-28T08:22:49;10.47;;;6.03;;
19998;SDS011;10160;50.926;4.374;2023-02-28T08:25:15;13.60;;;6.23;;
19998;SDS011;10160;50.926;4.374;2023-02-28T08:27:41;12.10;;;5.53;;
19998;SDS011;10160;50.926;4.374;2023-02-28T08:30:06;15.37;;;7.70;;
19998;SDS011;10160;50.926;4.374;2023-02-28T08:32:34;10.90;;;6.40;;
19998;SDS011;10160;50.926;4.374;2023-02-28T08:35:00;8.90;;;5.87;;
19998;SDS011;10160;50.926;4.374;2023-02-28T08:37:27;16.13;;;5.77;;
19998;SDS011;10160;50.926;4.374;2023-02-28T08:39:53;11.50;;;6.00;;
19998;SDS011;10160;50.926;4.374;2023-02-28T08:42:19;11.23;;;6.83;;
19998;SDS011;10160;50.926;4.374;2023-02-28T08:44:45;10.77;;;6.03;;
19998;SDS011;10160;50.926;4.374;2023-02-28T08:47:10;7.37;;;4.50;;
19998;SDS011;10160;50.926;4.374;2023-02-28T08:49:37;11.37;;;4.43;;
19998;SDS011;10160;50.926;4.374;2023-02-28T08:52:03;11.03;;;4.63;;
19998;SDS011;10160;50.926;4.374;2023-02-28T08:54:29;6.90;;;4.30;;
19998;SDS011;10160;50.926;4.374;2023-02-28T08:56:57;12.43;;;4.03;;
19998;SDS011;10160;50.926;4.374;2023-02-28T08:59:22;9.50;;;4.30;;
19998;SDS011;10160;50.926;4.374;2023-02-28T09:01:48;10.03;;;4.37;;
19998;SDS011;10160;50.926;4.374;2023-02-28T09:04:14;7.43;;;4.07;;
19998;SDS011;10160;50.926;4.374;2023-02-28T09:06:39;6.57;;;4.00;;
19998;SDS011;10160;50.926;4.374;2023-02-28T09:09:06;8.57;;;4.13;;
19998;SDS011;10160;50.926;4.374;2023-02-28T09:11:33;8.87;;;5.00;;
19998;SDS011;10160;50.926;4.374;2023-02-28T09:13:59;7.50;;;4.40;;
19998;SDS011;10160;50.926;4.374;2023-02-28T09:16:26;10.50;;;4.67;;
19998;SDS011;10160;50.926;4.374;2023-02-28T09:18:52;7.20;;;4.30;;
19998;SDS011;10160;50.926;4.374;2023-02-28T09:21:18;8.37;;;5.10;;
19998;SDS011;10160;50.926;4.374;2023-02-28T09:23:45;9.33;;;4.73;;
19998;SDS011;10160;50.926;4.374;2023-02-28T09:26:16;10.90;;;3.90;;
19998;SDS011;10160;50.926;4.374;2023-02-28T09:28:44;12.40;;;5.63;;
19998;SDS011;10160;50.926;4.374;2023-02-28T09:31:18;8.07;;;3.97;;
19998;SDS011;10160;50.926;4.374;2023-02-28T09:33:46;11.53;;;4.10;;
19998;SDS011;10160;50.926;4.374;2023-02-28T09:36:17;8.10;;;4.40;;
19998;SDS011;10160;50.926;4.374;2023-02-28T09:38:43;7.00;;;3.80;;
19998;SDS011;10160;50.926;4.374;2023-02-28T09:41:14;10.73;;;4.03;;
19998;SDS011;10160;50.926;4.374;2023-02-28T09:43:46;9.10;;;3.83;;
19998;SDS011;10160;50.926;4.374;2023-02-28T09:49:00;6.10;;;3.43;;
19998;SDS011;10160;50.926;4.374;2023-02-28T09:54:09;9.80;;;4.27;;
19998;SDS011;10160;50.926;4.374;2023-02-28T09:56:44;9.97;;;3.30;;
19998;SDS011;10160;50.926;4.374;2023-02-28T10:02:31;7.57;;;3.83;;
19998;SDS011;10160;50.926;4.374;2023-02-28T10:05:41;7.13;;;3.40;;
19998;SDS011;10160;50.926;4.374;2023-02-28T10:08:26;14.93;;;3.80;;
19998;SDS011;10160;50.926;4.374;2023-02-28T10:11:09;5.17;;;2.93;;
19998;SDS011;10160;50.926;4.374;2023-02-28T10:19:32;5.27;;;3.10;;
19998;SDS011;10160;50.926;4.374;2023-02-28T10:22:15;4.77;;;2.90;;
19998;SDS011;10160;50.926;4.374;2023-02-28T10:25:00;6.67;;;3.33;;
19998;SDS011;10160;50.926;4.374;2023-02-28T10:27:36;6.90;;;3.37;;
19998;SDS011;10160;50.926;4.374;2023-02-28T10:30:02;8.50;;;3.30;;
19998;SDS011;10160;50.926;4.374;2023-02-28T10:32:32;6.77;;;2.90;;
19998;SDS011;10160;50.926;4.374;2023-02-28T10:35:10;6.13;;;3.00;;
19998;SDS011;10160;50.926;4.374;2023-02-28T10:37:56;5.57;;;2.23;;
19998;SDS011;10160;50.926;4.374;2023-02-28T10:42:56;10.27;;;2.77;;
19998;SDS011;10160;50.926;4.374;2023-02-28T10:45:22;7.17;;;2.40;;
19998;SDS011;10160;50.926;4.374;2023-02-28T10:47:53;6.20;;;2.67;;
19998;SDS011;10160;50.926;4.374;2023-02-28T10:53:28;6.03;;;2.50;;
19998;SDS011;10160;50.926;4.374;2023-02-28T11:03:55;5.70;;;2.05;;
19998;SDS011;10160;50.926;4.374;2023-02-28T11:06:26;5.15;;;2.10;;
19998;SDS011;10160;50.926;4.374;2023-02-28T11:08:58;5.27;;;2.10;;
19998;SDS011;10160;50.926;4.374;2023-02-28T11:11:28;4.17;;;2.20;;
19998;SDS011;10160;50.926;4.374;2023-02-28T11:14:04;6.87;;;2.70;;
19998;SDS011;10160;50.926;4.374;2023-02-28T11:16:36;6.70;;;2.70;;
19998;SDS011;10160;50.926;4.374;2023-02-28T11:19:03;4.07;;;1.90;;
19998;SDS011;10160;50.926;4.374;2023-02-28T11:21:36;6.47;;;2.30;;
19998;SDS011;10160;50.926;4.374;2023-02-28T11:26:57;5.33;;;2.53;;
19998;SDS011;10160;50.926;4.374;2023-02-28T11:29:27;5.20;;;2.23;;
19998;SDS011;10160;50.926;4.374;2023-02-28T11:34:28;7.97;;;2.43;;
19998;SDS011;10160;50.926;4.374;2023-02-28T11:36:54;6.03;;;2.20;;
19998;SDS011;10160;50.926;4.374;2023-02-28T11:39:22;11.13;;;2.60;;
19998;SDS011;10160;50.926;4.374;2023-02-28T11:55:25;5.20;;;2.23;;
19998;SDS011;10160;50.926;4.374;2023-02-28T12:17:57;3.90;;;1.92;;
19998;SDS011;10160;50.926;4.374;2023-02-28T12:20:46;10.53;;;3.33;;
19998;SDS011;10160;50.926;4.374;2023-02-28T12:26:04;6.73;;;2.17;;
19998;SDS011;10160;50.926;4.374;2023-02-28T12:28:34;5.30;;;2.50;;
19998;SDS011;10160;50.926;4.374;2023-02-28T12:31:51;5.00;;;2.23;;
19998;SDS011;10160;50.926;4.374;2023-02-28T12:33:58;5.03;;;2.30;;
19998;SDS011;10160;50.926;4.374;2023-02-28T12:36:26;8.00;;;2.50;;
19998;SDS011;10160;50.926;4.374;2023-02-28T12:38:55;5.47;;;2.40;;
19998;SDS011;10160;50.926;4.374;2023-02-28T12:44:19;5.13;;;2.67;;
19998;SDS011;10160;50.926;4.374;2023-02-28T12:47:02;6.00;;;2.37;;
19998;SDS011;10160;50.926;4.374;2023-02-28T12:49:42;5.20;;;2.27;;
19998;SDS011;10160;50.926;4.374;2023-02-28T12:52:18;4.50;;;2.30;;
19998;SDS011;10160;50.926;4.374;2023-02-28T12:54:56;5.03;;;2.73;;
19998;SDS011;10160;50.926;4.374;2023-02-28T12:57:39;7.27;;;2.50;;
19998;SDS011;10160;50.926;4.374;2023-02-28T13:00:14;5.17;;;2.60;;
19998;SDS011;10160;50.926;4.374;2023-02-28T13:08:51;4.90;;;2.25;;
19998;SDS011;10160;50.926;4.374;2023-02-28T13:11:30;17.88;;;3.20;;
19998;SDS011;10160;50.926;4.374;2023-02-28T13:14:03;6.53;;;2.25;;
19998;SDS011;10160;50.926;4.374;2023-02-28T13:16:54;6.63;;;2.58;;
19998;SDS011;10160;50.926;4.374;2023-02-28T13:19:22;8.32;;;2.67;;
19998;SDS011;10160;50.926;4.374;2023-02-28T13:21:51;7.70;;;2.63;;
19998;SDS011;10160;50.926;4.374;2023-02-28T13:29:42;7.90;;;2.43;;
19998;SDS011;10160;50.926;4.374;2023-02-28T13:34:36;5.97;;;2.87;;
19998;SDS011;10160;50.926;4.374;2023-02-28T13:39:51;7.37;;;2.67;;
19998;SDS011;10160;50.926;4.374;2023-02-28T13:45:30;5.63;;;2.80;;
19998;SDS011;10160;50.926;4.374;2023-02-28T13:47:43;5.57;;;2.60;;
19998;SDS011;10160;50.926;4.374;2023-02-28T14:06:58;4.77;;;2.50;;
19998;SDS011;10160;50.926;4.374;2023-02-28T14:09:29;5.57;;;2.70;;
19998;SDS011;10160;50.926;4.374;2023-02-28T14:15:04;6.70;;;3.33;;
19998;SDS011;10160;50.926;4.374;2023-02-28T14:17:51;8.60;;;3.27;;
19998;SDS011;10160;50.926;4.374;2023-02-28T14:20:18;9.73;;;3.00;;
19998;SDS011;10160;50.926;4.374;2023-02-28T14:25:35;8.47;;;4.40;;
19998;SDS011;10160;50.926;4.374;2023-02-28T14:36:33;6.90;;;3.47;;
19998;SDS011;10160;50.926;4.374;2023-02-28T14:39:21;6.93;;;2.73;;
19998;SDS011;10160;50.926;4.374;2023-02-28T14:41:48;6.13;;;3.50;;
19998;SDS011;10160;50.926;4.374;2023-02-28T14:44:24;7.73;;;3.37;;
19998;SDS011;10160;50.926;4.374;2023-02-28T14:46:55;9.67;;;3.33;;
19998;SDS011;10160;50.926;4.374;2023-02-28T14:49:41;5.97;;;3.47;;
19998;SDS011;10160;50.926;4.374;2023-02-28T14:54:53;10.40;;;4.10;;
19998;SDS011;10160;50.926;4.374;2023-02-28T14:57:25;8.93;;;3.63;;
19998;SDS011;10160;50.926;4.374;2023-02-28T14:59:56;12.13;;;5.00;;
19998;SDS011;10160;50.926;4.374;2023-02-28T15:02:30;7.57;;;3.87;;
19998;SDS011;10160;50.926;4.374;2023-02-28T15:05:00;10.57;;;4.47;;
19998;SDS011;10160;50.926;4.374;2023-02-28T15:07:33;12.53;;;4.17;;
19998;SDS011;10160;50.926;4.374;2023-02-28T15:12:50;10.73;;;5.50;;
19998;SDS011;10160;50.926;4.374;2023-02-28T15:15:42;10.27;;;5.10;;
19998;SDS011;10160;50.926;4.374;2023-02-28T15:18:16;9.77;;;4.00;;
19998;SDS011;10160;50.926;4.374;2023-02-28T15:20:54;7.83;;;3.97;;
19998;SDS011;10160;50.926;4.374;2023-02-28T15:23:22;13.60;;;4.03;;
19998;SDS011;10160;50.926;4.374;2023-02-28T15:25:48;9.63;;;3.60;;
19998;SDS011;10160;50.926;4.374;2023-02-28T15:28:17;9.50;;;4.40;;
19998;SDS011;10160;50.926;4.374;2023-02-28T15:30:56;7.03;;;3.43;;
19998;SDS011;10160;50.926;4.374;2023-02-28T15:33:32;9.80;;;3.50;;
19998;SDS011;10160;50.926;4.374;2023-02-28T15:36:14;7.43;;;3.77;;
19998;SDS011;10160;50.926;4.374;2023-02-28T15:38:45;9.13;;;5.03;;
19998;SDS011;10160;50.926;4.374;2023-02-28T15:41:27;10.57;;;4.10;;
19998;SDS011;10160;50.926;4.374;2023-02-28T15:44:15;8.90;;;4.27;;
19998;SDS011;10160;50.926;4.374;2023-02-28T15:47:01;9.90;;;3.90;;
19998;SDS011;10160;50.926;4.374;2023-02-28T15:49:32;8.83;;;4.23;;
19998;SDS011;10160;50.926;4.374;2023-02-28T15:52:22;7.30;;;3.93;;
19998;SDS011;10160;50.926;4.374;2023-02-28T15:55:09;7.27;;;3.57;;
19998;SDS011;10160;50.926;4.374;2023-02-28T15:57:48;6.77;;;3.50;;
19998;SDS011;10160;50.926;4.374;2023-02-28T16:00:18;8.83;;;3.97;;
19998;SDS011;10160;50.926;4.374;2023-02-28T16:02:46;9.00;;;4.27;;
19998;SDS011;10160;50.926;4.374;2023-02-28T16:05:18;9.10;;;4.40;;
19998;SDS011;10160;50.926;4.374;2023-02-28T16:07:53;8.17;;;4.30;;
19998;SDS011;10160;50.926;4.374;2023-02-28T16:10:20;6.80;;;4.20;;
19998;SDS011;10160;50.926;4.374;2023-02-28T16:12:50;8.43;;;3.83;;
19998;SDS011;10160;50.926;4.374;2023-02-28T16:15:21;8.10;;;4.53;;
19998;SDS011;10160;50.926;4.374;2023-02-28T16:17:51;9.40;;;4.00;;
19998;SDS011;10160;50.926;4.374;2023-02-28T16:20:19;10.10;;;5.37;;
19998;SDS011;10160;50.926;4.374;2023-02-28T16:22:50;10.87;;;4.57;;
19998;SDS011;10160;50.926;4.374;2023-02-28T16:25:17;11.87;;;5.10;;
19998;SDS011;10160;50.926;4.374;2023-02-28T16:27:45;8.37;;;4.00;;
19998;SDS011;10160;50.926;4.374;2023-02-28T16:30:18;8.33;;;4.63;;
19998;SDS011;10160;50.926;4.374;2023-02-28T16:32:49;8.83;;;4.00;;
19998;SDS011;10160;50.926;4.374;2023-02-28T16:35:16;6.57;;;3.97;;
19998;SDS011;10160;50.926;4.374;2023-02-28T16:37:43;7.57;;;4.43;;
19998;SDS011;10160;50.926;4.374;2023-02-28T16:40:13;10.60;;;4.93;;
19998;SDS011;10160;50.926;4.374;2023-02-28T16:42:45;12.10;;;4.37;;
19998;SDS011;10160;50.926;4.374;2023-02-28T16:45:17;10.77;;;5.10;;
19998;SDS011;10160;50.926;4.374;2023-02-28T16:47:48;9.03;;;4.43;;
19998;SDS011;10160;50.926;4.374;2023-02-28T16:50:15;9.70;;;5.00;;
19998;SDS011;10160;50.926;4.374;2023-02-28T16:52:52;12.53;;;5.97;;
19998;SDS011;10160;50.926;4.374;2023-02-28T16:55:19;15.37;;;7.67;;
19998;SDS011;10160;50.926;4.374;2023-02-28T16:57:50;14.07;;;6.70;;
19998;SDS011;10160;50.926;4.374;2023-02-28T17:00:21;9.47;;;5.00;;
19998;SDS011;10160;50.926;4.374;2023-02-28T17:02:48;12.97;;;5.47;;
19998;SDS011;10160;50.926;4.374;2023-02-28T17:05:14;9.63;;;5.97;;
19998;SDS011;10160;50.926;4.374;2023-02-28T17:07:41;10.03;;;4.90;;
19998;SDS011;10160;50.926;4.374;2023-02-28T17:10:17;10.63;;;5.23;;
19998;SDS011;10160;50.926;4.374;2023-02-28T17:12:45;13.20;;;4.97;;
19998;SDS011;10160;50.926;4.374;2023-02-28T17:15:14;12.20;;;5.83;;
19998;SDS011;10160;50.926;4.374;2023-02-28T17:17:42;15.73;;;5.57;;
19998;SDS011;10160;50.926;4.374;2023-02-28T17:20:19;12.70;;;5.40;;
19998;SDS011;10160;50.926;4.374;2023-02-28T17:22:51;6.63;;;3.93;;
19998;SDS011;10160;50.926;4.374;2023-02-28T17:25:18;12.43;;;4.63;;
19998;SDS011;10160;50.926;4.374;2023-02-28T17:27:44;9.60;;;4.27;;
19998;SDS011;10160;50.926;4.374;2023-02-28T17:30:15;11.30;;;4.80;;
19998;SDS011;10160;50.926;4.374;2023-02-28T17:32:45;7.53;;;4.60;;
19998;SDS011;10160;50.926;4.374;2023-02-28T17:35:11;7.73;;;4.93;;
19998;SDS011;10160;50.926;4.374;2023-02-28T17:37:37;10.33;;;4.70;;
19998;SDS011;10160;50.926;4.374;2023-02-28T17:40:03;7.03;;;4.67;;